This is the latest recevied weather packets stored in our database for station/object IU1FIL-23. If no packets are shown the sender has not sent any weather packets the latest 10 day(s).
| Time | Temp. | Humidity | Pressure | Rain* | Wind** | Luminosity | Snow |
|---|---|---|---|---|---|---|---|
| 1777608909 | 7.78° C | 65% | 1025.1 hPa | - | - | - | - |
| 1777608305 | 7.78° C | 65% | 1025 hPa | - | - | - | - |
| 1777607700 | 7.78° C | 65% | 1025.1 hPa | - | - | - | - |
| 1777607096 | 7.78° C | 65% | 1024.9 hPa | - | - | - | - |
| 1777606492 | 7.78° C | 64% | 1024.9 hPa | - | - | - | - |
| 1777605888 | 7.78° C | 64% | 1024.8 hPa | - | - | - | - |
| 1777605284 | 8.33° C | 64% | 1024.8 hPa | - | - | - | - |
| 1777604680 | 8.33° C | 63% | 1024.8 hPa | - | - | - | - |
| 1777604076 | 8.33° C | 63% | 1024.7 hPa | - | - | - | - |
| 1777603471 | 8.33° C | 62% | 1024.6 hPa | - | - | - | - |
| 1777602867 | 8.33° C | 62% | 1024.7 hPa | - | - | - | - |
| 1777602263 | 8.33° C | 61% | 1024.6 hPa | - | - | - | - |
| 1777601659 | 8.33° C | 61% | 1024.7 hPa | - | - | - | - |
| 1777601055 | 8.33° C | 62% | 1024.7 hPa | - | - | - | - |
| 1777583511 | 8.89° C | 54% | 1023.7 hPa | - | - | - | - |
| 1777579878 | 8.89° C | 50% | 1023.6 hPa | - | - | - | - |
| 1777578064 | 8.89° C | 49% | 1023.6 hPa | - | - | - | - |
| 1777577459 | 8.89° C | 49% | 1023.5 hPa | - | - | - | - |
| 1777576854 | 9.44° C | 49% | 1023.4 hPa | - | - | - | - |
| 1777576249 | 9.44° C | 49% | 1023.4 hPa | - | - | - | - |
| 1777575642 | 9.44° C | 47% | 1023.3 hPa | - | - | - | - |
| 1777573814 | 10.56° C | 46% | 1023 hPa | - | - | - | - |
| 1777572605 | 11.11° C | 43% | 1022.7 hPa | - | - | - | - |
| 1777570187 | 13.33° C | 40% | 1022.4 hPa | - | - | - | - |
| 1777568977 | 14.44° C | 39% | 1022.5 hPa | - | - | - | - |
* Rain since midnight (hover to see other rain measurements)
** Current wind speed in m/s (hover to see current wind gust speed)